Time;durP1;ratioP1;P1;durP2;ratioP2;P2;SDS_P1;SDS_P2;PMS_P1;PMS_P2;Temp;Humidity;BMP_temperature;BMP_pressure;BME280_temperature;BME280_humidity;BME280_pressure;Samples;Min_cycle;Max_cycle;Signal;HPM_P1;HPM_P2
2021/07/03 00:01:42;;;;;;;10.02;8.30;;;15.50;99.90;;;;;;4955705;28;20215;-42
2021/07/03 00:04:10;;;;;;;11.95;8.68;;;15.50;99.90;;;;;;4955708;28;20207;-39
2021/07/03 00:06:38;;;;;;;9.82;8.82;;;15.50;99.90;;;;;;4955788;28;20238;-41
2021/07/03 00:09:06;;;;;;;9.45;8.45;;;15.50;99.90;;;;;;4955705;28;20239;-40
2021/07/03 00:11:35;;;;;;;12.23;10.85;;;15.50;99.90;;;;;;4955631;28;20250;-40
2021/07/03 00:14:03;;;;;;;14.18;11.23;;;15.60;99.90;;;;;;4955775;28;20315;-39
2021/07/03 00:16:31;;;;;;;12.13;10.68;;;15.50;99.90;;;;;;4955226;28;20231;-39
2021/07/03 00:19:00;;;;;;;11.98;9.32;;;15.50;99.90;;;;;;4955591;28;20216;-42
2021/07/03 00:21:28;;;;;;;10.82;9.40;;;15.50;99.90;;;;;;4955312;28;20217;-40
2021/07/03 00:23:56;;;;;;;9.85;8.27;;;15.50;99.90;;;;;;4955355;28;20302;-40
2021/07/03 00:26:24;;;;;;;12.38;9.55;;;15.50;99.90;;;;;;4955098;28;20318;-39
2021/07/03 00:28:54;;;;;;;9.63;8.40;;;15.40;99.90;;;;;;4955152;28;20306;-40
2021/07/03 00:31:22;;;;;;;8.95;8.05;;;15.40;99.90;;;;;;4955586;28;20285;-39
2021/07/03 00:33:50;;;;;;;10.18;9.10;;;15.40;99.90;;;;;;4955335;28;20270;-39
2021/07/03 00:36:18;;;;;;;9.93;8.93;;;15.30;99.90;;;;;;4955344;28;20242;-40
2021/07/03 00:38:46;;;;;;;10.15;8.65;;;15.30;99.90;;;;;;4955214;28;20222;-40
2021/07/03 00:41:14;;;;;;;12.52;9.20;;;15.20;99.90;;;;;;4954920;28;20216;-40
2021/07/03 00:43:41;;;;;;;9.40;8.45;;;15.20;99.90;;;;;;4955086;28;20298;-40
2021/07/03 00:46:12;;;;;;;9.65;8.63;;;15.20;99.90;;;;;;4955039;28;20643;-40
2021/07/03 00:48:40;;;;;;;10.48;8.98;;;15.20;99.90;;;;;;4954542;28;20251;-41
2021/07/03 00:51:08;;;;;;;9.75;8.57;;;15.10;99.90;;;;;;4954753;28;20215;-41
2021/07/03 00:53:39;;;;;;;9.88;8.45;;;15.10;99.90;;;;;;4954614;28;20211;-41
2021/07/03 00:56:09;;;;;;;10.07;9.10;;;15.00;99.90;;;;;;4954602;28;20231;-41
2021/07/03 00:58:36;;;;;;;10.77;9.60;;;15.00;99.90;;;;;;4954721;28;20274;-40
2021/07/03 01:01:05;;;;;;;10.30;9.30;;;15.00;99.90;;;;;;4954533;28;20215;-40
2021/07/03 01:03:34;;;;;;;10.45;9.48;;;15.00;99.90;;;;;;4954517;28;20212;-40
2021/07/03 01:06:02;;;;;;;10.80;9.68;;;14.90;99.90;;;;;;4954484;28;20306;-39
2021/07/03 01:08:30;;;;;;;12.35;10.05;;;15.00;99.90;;;;;;4954400;28;20564;-40
2021/07/03 01:10:58;;;;;;;9.57;8.57;;;15.00;99.90;;;;;;4954320;28;20207;-40
2021/07/03 01:13:28;;;;;;;10.68;9.43;;;14.90;99.90;;;;;;4954471;28;20233;-40
2021/07/03 01:15:56;;;;;;;9.73;8.57;;;14.90;99.90;;;;;;4954404;28;20263;-40
2021/07/03 01:18:24;;;;;;;14.25;9.50;;;14.90;99.90;;;;;;4954194;28;20207;-40
2021/07/03 01:20:54;;;;;;;9.60;8.60;;;14.90;99.90;;;;;;4954153;28;20214;-40
2021/07/03 01:23:24;;;;;;;10.15;8.77;;;14.90;99.90;;;;;;4954300;28;20298;-40
2021/07/03 01:25:57;;;;;;;13.48;9.63;;;14.90;99.90;;;;;;4954298;28;20389;-40
2021/07/03 01:28:25;;;;;;;9.90;8.90;;;14.90;99.90;;;;;;4953515;28;20378;-39
2021/07/03 01:30:54;;;;;;;9.07;8.15;;;14.80;99.90;;;;;;4954087;28;20212;-39
2021/07/03 01:33:22;;;;;;;10.40;9.27;;;14.80;99.90;;;;;;4953887;28;20764;-40
2021/07/03 01:35:50;;;;;;;8.90;8.10;;;14.70;99.90;;;;;;4953962;28;20318;-40
2021/07/03 01:38:19;;;;;;;9.93;8.20;;;14.70;99.90;;;;;;4954173;28;20301;-39
2021/07/03 01:40:49;;;;;;;11.50;8.80;;;14.70;99.90;;;;;;4953948;28;20270;-40
2021/07/03 01:43:21;;;;;;;9.77;8.77;;;14.70;99.90;;;;;;4954056;28;20246;-40
2021/07/03 01:45:49;;;;;;;10.57;9.48;;;14.60;99.90;;;;;;4953670;28;20246;-39
2021/07/03 01:48:27;;;;;;;9.88;8.52;;;14.60;99.90;;;;;;4953758;28;20675;-40
2021/07/03 01:50:56;;;;;;;9.23;8.25;;;14.50;99.90;;;;;;4953929;28;20216;-40
2021/07/03 01:53:27;;;;;;;8.73;7.93;;;14.50;99.90;;;;;;4953592;28;20243;-41
2021/07/03 01:55:56;;;;;;;11.07;8.38;;;14.40;99.90;;;;;;4953692;28;20239;-40
2021/07/03 01:58:25;;;;;;;9.13;8.23;;;14.40;99.90;;;;;;4953665;28;20306;-40
2021/07/03 02:00:55;;;;;;;10.00;8.07;;;14.40;99.90;;;;;;4953627;28;20246;-40
2021/07/03 02:03:24;;;;;;;10.02;8.35;;;14.40;99.90;;;;;;4953829;28;20310;-40
2021/07/03 02:05:52;;;;;;;8.85;7.97;;;14.40;99.90;;;;;;4953916;28;20294;-40
2021/07/03 02:08:20;;;;;;;11.90;8.98;;;14.30;99.90;;;;;;4953504;28;20211;-40
2021/07/03 02:10:49;;;;;;;11.65;8.80;;;14.30;99.90;;;;;;4953800;28;20310;-40
2021/07/03 02:13:18;;;;;;;9.80;8.20;;;14.30;99.90;;;;;;4953685;28;20311;-39
2021/07/03 02:15:46;;;;;;;9.63;8.73;;;14.30;99.90;;;;;;4953633;28;20620;-39
2021/07/03 02:18:14;;;;;;;9.55;8.32;;;14.30;99.90;;;;;;4953928;28;20307;-40
2021/07/03 02:20:42;;;;;;;10.38;8.60;;;14.20;99.90;;;;;;4953594;28;20306;-40
2021/07/03 02:23:10;;;;;;;9.95;8.65;;;14.20;99.90;;;;;;4953448;28;20302;-40
2021/07/03 02:25:39;;;;;;;9.65;8.20;;;14.10;99.90;;;;;;4953771;28;20298;-41
2021/07/03 02:28:07;;;;;;;9.00;8.10;;;14.10;99.90;;;;;;4953568;28;20222;-40
2021/07/03 02:30:36;;;;;;;9.07;8.18;;;14.10;99.90;;;;;;4953583;28;20222;-40
2021/07/03 02:33:04;;;;;;;9.93;8.57;;;14.10;99.90;;;;;;4953392;28;20208;-39
2021/07/03 02:35:32;;;;;;;12.50;9.07;;;14.10;99.90;;;;;;4953195;28;20306;-40
2021/07/03 02:38:00;;;;;;;9.48;7.88;;;14.10;99.90;;;;;;4953406;28;20317;-39
2021/07/03 02:40:30;;;;;;;10.82;8.50;;;14.20;99.90;;;;;;4956203;28;20642;-40
2021/07/03 02:42:58;;;;;;;11.63;8.30;;;14.00;99.90;;;;;;4956949;28;20246;-40
2021/07/03 02:45:26;;;;;;;9.65;8.65;;;13.90;99.90;;;;;;4957000;28;20730;-40
2021/07/03 02:47:56;;;;;;;9.13;8.20;;;13.90;99.90;;;;;;4956618;28;20249;-41
2021/07/03 02:50:24;;;;;;;9.60;8.30;;;13.90;99.90;;;;;;4956633;28;20298;-40
2021/07/03 02:52:51;;;;;;;9.60;7.75;;;13.90;99.90;;;;;;4956772;28;20211;-39
2021/07/03 02:55:19;;;;;;;11.30;9.00;;;14.00;99.90;;;;;;4956901;28;20234;-40
2021/07/03 02:57:48;;;;;;;10.82;8.55;;;14.00;99.90;;;;;;4956547;28;20660;-42
2021/07/03 03:00:17;;;;;;;9.38;8.13;;;14.00;99.90;;;;;;4956607;28;20242;-40
2021/07/03 03:02:45;;;;;;;9.73;8.73;;;14.00;99.90;;;;;;4956594;28;20588;-40
2021/07/03 03:05:16;;;;;;;10.27;8.25;;;13.90;99.90;;;;;;4956862;28;20306;-40
2021/07/03 03:07:44;;;;;;;10.68;7.78;;;14.00;99.90;;;;;;4957014;28;20243;-40
2021/07/03 03:10:13;;;;;;;10.43;9.30;;;13.90;99.90;;;;;;4956482;28;20714;-40
2021/07/03 03:12:42;;;;;;;10.73;9.63;;;13.80;99.90;;;;;;4956635;28;20229;-41
2021/07/03 03:15:12;;;;;;;11.45;9.40;;;13.80;99.90;;;;;;4956424;28;20253;-39
2021/07/03 03:17:44;;;;;;;11.80;9.50;;;13.70;99.90;;;;;;4956468;28;20290;-39
2021/07/03 03:20:15;;;;;;;10.27;9.18;;;13.80;99.90;;;;;;4956402;28;20215;-39
2021/07/03 03:22:43;;;;;;;12.50;10.13;;;13.70;99.90;;;;;;4956252;28;20580;-40
2021/07/03 03:25:12;;;;;;;10.75;9.75;;;13.70;99.90;;;;;;4956324;28;20219;-39
2021/07/03 03:27:40;;;;;;;10.27;9.27;;;13.80;99.90;;;;;;4956241;28;20302;-39
2021/07/03 03:30:09;;;;;;;10.38;9.38;;;13.80;99.90;;;;;;4956074;28;20199;-39
2021/07/03 03:32:37;;;;;;;9.65;8.75;;;13.90;99.90;;;;;;4956189;28;20302;-40
2021/07/03 03:35:08;;;;;;;10.65;9.18;;;13.90;99.90;;;;;;4956236;28;20211;-39
2021/07/03 03:37:37;;;;;;;15.07;10.20;;;13.90;99.90;;;;;;4956016;28;20326;-39
2021/07/03 03:40:06;;;;;;;9.55;8.65;;;13.90;99.90;;;;;;4955885;28;20218;-40
2021/07/03 03:42:34;;;;;;;9.63;8.68;;;13.90;99.90;;;;;;4956055;28;20261;-40
2021/07/03 03:45:03;;;;;;;9.70;8.70;;;13.90;99.90;;;;;;4955900;28;20751;-40
2021/07/03 03:47:31;;;;;;;13.27;9.85;;;13.90;99.90;;;;;;4955617;28;20239;-39
2021/07/03 03:49:59;;;;;;;9.10;8.00;;;14.00;99.90;;;;;;4955767;28;20600;-40
2021/07/03 03:52:27;;;;;;;10.25;9.18;;;14.00;99.90;;;;;;4954819;28;20225;-40
2021/07/03 03:54:56;;;;;;;10.02;8.95;;;14.10;99.90;;;;;;4955437;28;20215;-40
2021/07/03 03:57:29;;;;;;;9.60;8.68;;;14.10;99.90;;;;;;4955470;28;20234;-39
2021/07/03 03:59:57;;;;;;;9.93;8.75;;;14.10;99.90;;;;;;4955430;28;20314;-39
2021/07/03 04:02:26;;;;;;;9.27;8.43;;;14.20;99.90;;;;;;4955345;28;20211;-40
2021/07/03 04:04:54;;;;;;;11.55;9.20;;;14.20;99.90;;;;;;4955246;28;20219;-40
2021/07/03 04:07:23;;;;;;;9.75;8.77;;;14.20;99.90;;;;;;4954993;28;20242;-40
2021/07/03 04:09:51;;;;;;;11.25;8.65;;;14.20;99.90;;;;;;4955483;28;20314;-39
2021/07/03 04:12:20;;;;;;;10.23;9.23;;;14.20;99.90;;;;;;4955268;28;20306;-40
2021/07/03 04:14:48;;;;;;;13.23;9.75;;;14.30;99.90;;;;;;4955098;28;20667;-39
2021/07/03 04:17:16;;;;;;;11.55;9.98;;;14.40;99.90;;;;;;4954951;28;20774;-39
2021/07/03 04:19:44;;;;;;;12.88;9.48;;;14.40;99.90;;;;;;4955212;28;20298;-39
2021/07/03 04:22:16;;;;;;;14.80;11.13;;;14.50;99.90;;;;;;4954660;28;20263;-40
2021/07/03 04:24:44;;;;;;;16.00;12.98;;;14.60;99.90;;;;;;4954897;28;20302;-40
2021/07/03 04:27:13;;;;;;;9.77;8.80;;;14.70;99.90;;;;;;4955053;28;20290;-39
2021/07/03 04:29:42;;;;;;;10.55;9.45;;;14.80;99.90;;;;;;4954803;28;20211;-39
2021/07/03 04:32:10;;;;;;;17.23;9.07;;;14.90;99.90;;;;;;4954855;28;20660;-40
2021/07/03 04:34:38;;;;;;;13.27;9.70;;;15.00;99.90;;;;;;4955011;28;20302;-40
2021/07/03 04:37:06;;;;;;;9.90;8.90;;;15.10;99.90;;;;;;4954955;28;20231;-41
2021/07/03 04:39:34;;;;;;;11.20;9.10;;;15.10;99.90;;;;;;4954919;28;20291;-41
2021/07/03 04:42:02;;;;;;;11.35;9.70;;;15.10;99.90;;;;;;4954824;28;20567;-41
2021/07/03 04:44:30;;;;;;;11.27;8.50;;;15.10;99.90;;;;;;4954597;28;20298;-40
2021/07/03 04:46:59;;;;;;;11.40;9.85;;;15.00;99.90;;;;;;4954511;28;20326;-42
2021/07/03 04:49:31;;;;;;;10.10;9.10;;;15.00;99.90;;;;;;4954420;28;20207;-42
2021/07/03 04:51:59;;;;;;;10.43;9.32;;;15.10;99.90;;;;;;4954703;28;20218;-42
2021/07/03 04:54:28;;;;;;;11.55;9.80;;;15.10;99.90;;;;;;4954488;28;20215;-41
2021/07/03 04:57:06;;;;;;;11.27;9.70;;;15.00;99.90;;;;;;4954504;28;20221;-40
2021/07/03 04:59:35;;;;;;;11.52;10.32;;;15.10;99.90;;;;;;4954398;28;20679;-40
2021/07/03 05:02:05;;;;;;;11.25;10.10;;;15.00;99.90;;;;;;4954726;28;20213;-41
2021/07/03 05:04:33;;;;;;;12.02;9.80;;;15.00;99.90;;;;;;4954626;28;20290;-39
2021/07/03 05:07:02;;;;;;;12.60;10.32;;;15.10;99.90;;;;;;4954699;28;20302;-40
2021/07/03 05:09:30;;;;;;;11.75;10.00;;;15.20;99.90;;;;;;4954382;28;20217;-40
2021/07/03 05:11:58;;;;;;;13.13;10.32;;;15.30;99.90;;;;;;4954076;28;20210;-40
2021/07/03 05:14:27;;;;;;;13.43;9.80;;;15.50;99.90;;;;;;4954582;28;20551;-41
2021/07/03 05:16:55;;;;;;;10.48;9.43;;;15.60;99.90;;;;;;4953921;28;20239;-40
2021/07/03 05:19:24;;;;;;;11.07;9.63;;;15.80;99.90;;;;;;4954273;28;20282;-40
2021/07/03 05:21:52;;;;;;;11.90;10.43;;;16.00;99.90;;;;;;4954098;28;20234;-40
2021/07/03 05:24:21;;;;;;;10.13;8.68;;;16.10;99.90;;;;;;4954222;28;20325;-40
2021/07/03 05:26:48;;;;;;;10.60;9.00;;;16.20;99.90;;;;;;4953988;28;20731;-40
2021/07/03 05:29:17;;;;;;;10.60;9.30;;;16.40;99.90;;;;;;4954383;28;20207;-40
2021/07/03 05:31:44;;;;;;;10.10;9.10;;;16.50;99.90;;;;;;4954131;28;20216;-41
2021/07/03 05:34:13;;;;;;;11.15;9.77;;;16.60;99.90;;;;;;4954064;28;20215;-40
2021/07/03 05:36:45;;;;;;;11.95;9.32;;;16.80;99.90;;;;;;4954196;28;20678;-40
2021/07/03 05:39:13;;;;;;;10.82;9.40;;;17.00;99.90;;;;;;4953834;28;20257;-43
2021/07/03 05:41:41;;;;;;;10.13;9.20;;;17.10;99.90;;;;;;4954086;28;20215;-41
2021/07/03 05:44:09;;;;;;;11.27;8.85;;;17.20;99.90;;;;;;4954152;28;20293;-41
2021/07/03 05:46:37;;;;;;;11.55;9.15;;;17.30;99.90;;;;;;4953856;28;20305;-42
2021/07/03 05:49:05;;;;;;;10.25;9.15;;;17.40;99.90;;;;;;4954207;28;20215;-40
2021/07/03 05:51:33;;;;;;;11.77;10.57;;;17.50;99.90;;;;;;4953771;28;20242;-41
2021/07/03 05:54:02;;;;;;;11.05;9.68;;;17.60;99.90;;;;;;4954147;28;20303;-41
2021/07/03 05:56:30;;;;;;;11.32;9.23;;;17.60;99.90;;;;;;4953846;28;20302;-41
2021/07/03 05:59:06;;;;;;;10.07;9.13;;;17.70;99.90;;;;;;4953789;28;20231;-40
2021/07/03 06:05:15;;;;;;;11.65;10.40;;;17.90;99.90;;;;;;4953584;29;20550;-42
2021/07/03 06:07:43;;;;;;;11.18;9.27;;;18.00;99.90;;;;;;4953791;28;20754;-41
2021/07/03 06:10:13;;;;;;;10.73;8.82;;;18.00;99.90;;;;;;4953605;28;20234;-41
2021/07/03 06:12:42;;;;;;;10.85;9.45;;;18.00;99.90;;;;;;4953605;28;20578;-42
2021/07/03 06:15:12;;;;;;;9.68;8.75;;;18.10;99.90;;;;;;4956290;28;20248;-41
2021/07/03 06:17:40;;;;;;;9.73;8.45;;;18.20;99.90;;;;;;4957980;28;20223;-42
2021/07/03 06:20:09;;;;;;;11.90;8.60;;;18.30;99.90;;;;;;4957565;28;20215;-40
2021/07/03 06:22:37;;;;;;;9.57;8.63;;;18.50;99.90;;;;;;4957233;28;20302;-41
2021/07/03 06:25:08;;;;;;;9.35;8.48;;;18.60;99.90;;;;;;4957389;28;20215;-42
2021/07/03 06:27:38;;;;;;;10.02;8.90;;;18.70;99.90;;;;;;4957532;28;20246;-41
2021/07/03 06:30:07;;;;;;;8.80;7.90;;;18.80;99.90;;;;;;4957193;28;20689;-40
2021/07/03 06:32:35;;;;;;;11.05;8.35;;;18.90;99.90;;;;;;4957314;28;20303;-40
2021/07/03 06:35:04;;;;;;;9.80;8.10;;;19.00;99.90;;;;;;4957184;28;20222;-41
2021/07/03 06:37:33;;;;;;;11.07;8.98;;;19.10;99.90;;;;;;4956987;28;20277;-41
2021/07/03 06:40:01;;;;;;;8.90;7.72;;;19.20;99.90;;;;;;4957259;28;20230;-40
2021/07/03 06:42:28;;;;;;;8.80;7.97;;;19.30;99.90;;;;;;4956959;28;20585;-40
2021/07/03 06:44:58;;;;;;;10.82;7.97;;;19.40;99.90;;;;;;4956913;28;20235;-41
2021/07/03 06:47:26;;;;;;;11.65;7.57;;;19.40;99.90;;;;;;4956869;28;20617;-41
2021/07/03 06:49:54;;;;;;;8.82;7.93;;;19.50;99.90;;;;;;4956870;28;20207;-42
2021/07/03 06:52:22;;;;;;;7.75;7.05;;;19.70;99.90;;;;;;4956940;28;20276;-41
2021/07/03 06:54:50;;;;;;;10.20;7.72;;;19.70;99.90;;;;;;4956586;28;20591;-42
2021/07/03 06:57:18;;;;;;;8.18;6.82;;;19.80;99.90;;;;;;4957051;28;20411;-42
2021/07/03 06:59:46;;;;;;;7.90;7.10;;;19.90;99.90;;;;;;4956535;28;20236;-43
2021/07/03 07:02:16;;;;;;;8.68;7.45;;;20.00;99.90;;;;;;4956596;28;20310;-42
2021/07/03 07:04:44;;;;;;;9.40;7.40;;;20.10;99.90;;;;;;4956694;28;20211;-43
2021/07/03 07:07:12;;;;;;;7.63;6.85;;;20.10;99.90;;;;;;4956712;28;20413;-45
2021/07/03 07:09:40;;;;;;;7.05;6.35;;;20.20;99.90;;;;;;4956629;28;20203;-42
2021/07/03 07:12:09;;;;;;;7.30;6.70;;;20.30;99.80;;;;;;4956786;28;20215;-44
2021/07/03 07:14:37;;;;;;;7.45;6.75;;;20.40;99.60;;;;;;4956654;28;20675;-44
2021/07/03 07:17:05;;;;;;;7.03;6.28;;;20.50;99.20;;;;;;4956168;28;20207;-44
2021/07/03 07:19:34;;;;;;;7.43;6.57;;;20.60;99.00;;;;;;4956010;28;20235;-43
2021/07/03 07:22:02;;;;;;;7.18;6.47;;;20.60;98.90;;;;;;4955973;28;20216;-42
2021/07/03 07:24:30;;;;;;;22.00;7.82;;;20.70;98.60;;;;;;4956343;28;20306;-42
2021/07/03 07:26:58;;;;;;;6.30;5.70;;;20.80;98.40;;;;;;4955207;28;20211;-42
2021/07/03 07:29:26;;;;;;;5.28;4.78;;;20.90;98.00;;;;;;4955854;28;20209;-42
2021/07/03 07:31:54;;;;;;;8.45;5.43;;;21.00;97.40;;;;;;4956251;28;20294;-42
2021/07/03 07:34:22;;;;;;;7.40;6.60;;;21.00;96.90;;;;;;4955822;28;20739;-42
2021/07/03 07:36:51;;;;;;;5.97;5.40;;;21.10;96.60;;;;;;4955873;28;20578;-42
2021/07/03 07:39:19;;;;;;;8.68;5.53;;;21.20;96.20;;;;;;4955959;28;20237;-43
2021/07/03 07:41:47;;;;;;;5.63;5.05;;;21.30;96.00;;;;;;4955764;28;20306;-42
2021/07/03 07:44:15;;;;;;;7.78;5.65;;;21.40;96.00;;;;;;4955670;28;20298;-42
2021/07/03 07:46:43;;;;;;;7.95;6.07;;;21.50;95.40;;;;;;4957325;28;20299;-41
2021/07/03 07:49:11;;;;;;;7.18;6.20;;;21.50;94.90;;;;;;4956027;28;20627;-41
2021/07/03 07:51:39;;;;;;;6.10;5.60;;;21.60;94.80;;;;;;4955818;28;20212;-41
2021/07/03 07:54:08;;;;;;;6.00;4.93;;;21.60;94.50;;;;;;4955653;28;20212;-43
2021/07/03 07:56:36;;;;;;;6.78;5.15;;;21.70;94.20;;;;;;4956142;28;20221;-41
2021/07/03 07:59:04;;;;;;;6.93;6.05;;;21.70;93.90;;;;;;4956041;28;20263;-41
2021/07/03 08:01:32;;;;;;;6.72;6.10;;;21.70;93.70;;;;;;4956036;28;20215;-41
2021/07/03 08:04:00;;;;;;;6.18;5.57;;;21.80;93.70;;;;;;4956647;28;20684;-42
2021/07/03 08:06:28;;;;;;;7.07;5.30;;;21.80;93.40;;;;;;4955562;28;20212;-44
2021/07/03 08:08:56;;;;;;;7.68;6.72;;;21.80;93.40;;;;;;4955521;28;20258;-44
2021/07/03 08:11:25;;;;;;;7.13;5.78;;;21.80;93.50;;;;;;4955803;28;20222;-42
2021/07/03 08:13:53;;;;;;;6.15;5.47;;;21.90;93.70;;;;;;4955564;28;20229;-42
2021/07/03 08:16:21;;;;;;;10.18;5.78;;;22.00;93.30;;;;;;4955431;28;20215;-44
2021/07/03 08:18:49;;;;;;;9.70;5.82;;;22.00;93.20;;;;;;4955389;28;20708;-52
2021/07/03 08:21:17;;;;;;;7.72;6.15;;;22.20;93.10;;;;;;4955056;28;20302;-42
2021/07/03 08:23:45;;;;;;;7.90;5.82;;;22.20;92.90;;;;;;4955229;28;20298;-42
2021/07/03 08:26:13;;;;;;;6.45;5.85;;;22.30;92.60;;;;;;4955455;28;20318;-42
2021/07/03 08:28:43;;;;;;;9.27;6.32;;;22.30;92.20;;;;;;4955039;28;20578;-43
2021/07/03 08:31:11;;;;;;;7.97;5.60;;;22.40;91.80;;;;;;4955103;28;20215;-41
2021/07/03 08:33:39;;;;;;;5.93;5.30;;;22.50;91.40;;;;;;4955124;28;20237;-42
2021/07/03 08:36:07;;;;;;;6.20;5.60;;;22.70;90.90;;;;;;4955010;28;20661;-41
2021/07/03 08:38:35;;;;;;;5.47;4.97;;;22.80;90.50;;;;;;4956890;28;20277;-43
2021/07/03 08:41:03;;;;;;;6.53;5.53;;;22.90;90.00;;;;;;4954951;28;20274;-42
2021/07/03 08:43:31;;;;;;;6.03;5.50;;;22.90;89.50;;;;;;4955100;28;20251;-42
2021/07/03 08:46:01;;;;;;;5.43;5.03;;;23.00;88.80;;;;;;4954790;28;20258;-44
2021/07/03 08:48:29;;;;;;;6.20;5.60;;;23.00;88.00;;;;;;4954891;28;20331;-44
2021/07/03 08:50:59;;;;;;;6.13;5.63;;;23.00;87.60;;;;;;4954740;28;20212;-42
2021/07/03 08:53:28;;;;;;;5.50;5.00;;;23.10;87.20;;;;;;4954880;28;20640;-46
2021/07/03 08:55:56;;;;;;;5.78;5.18;;;23.10;86.90;;;;;;4954894;28;20303;-43
2021/07/03 08:58:24;;;;;;;13.48;6.20;;;23.20;87.10;;;;;;4954605;28;20302;-42
2021/07/03 09:00:52;;;;;;;6.13;5.63;;;23.40;86.70;;;;;;4954432;28;20267;-42
2021/07/03 09:03:24;;;;;;;5.30;4.82;;;23.50;86.20;;;;;;4954423;28;20302;-41
2021/07/03 09:05:55;;;;;;;7.03;6.35;;;23.50;85.80;;;;;;4954218;28;20243;-42
2021/07/03 09:08:24;;;;;;;6.38;5.20;;;23.60;85.70;;;;;;4954603;28;20207;-42
2021/07/03 09:11:01;;;;;;;5.45;5.00;;;23.60;85.30;;;;;;4955018;28;20239;-42
2021/07/03 09:13:29;;;;;;;12.45;11.45;;;23.60;84.80;;;;;;4954452;28;20215;-42
2021/07/03 09:15:58;;;;;;;6.78;5.55;;;23.70;85.00;;;;;;4954382;28;20250;-40
2021/07/03 09:18:30;;;;;;;7.45;5.80;;;23.80;84.40;;;;;;4954278;28;20694;-41
2021/07/03 09:21:00;;;;;;;6.82;5.75;;;23.80;83.90;;;;;;4954205;28;20302;-43
2021/07/03 09:23:31;;;;;;;9.82;6.15;;;23.80;83.70;;;;;;4954249;28;20256;-42
2021/07/03 09:26:01;;;;;;;5.68;5.18;;;23.90;83.60;;;;;;4954143;28;20673;-42
2021/07/03 09:28:31;;;;;;;8.60;5.80;;;24.00;83.40;;;;;;4956124;28;20258;-43
2021/07/03 09:31:01;;;;;;;6.43;4.72;;;24.10;82.70;;;;;;4955008;28;20586;-42
2021/07/03 09:33:33;;;;;;;5.25;4.75;;;24.10;82.10;;;;;;4954476;28;20220;-41
2021/07/03 09:36:02;;;;;;;5.97;5.15;;;24.00;81.80;;;;;;4954354;28;20298;-42
2021/07/03 09:38:32;;;;;;;5.13;4.63;;;24.00;82.10;;;;;;4954116;28;20305;-44
2021/07/03 09:41:08;;;;;;;5.35;4.85;;;23.90;81.00;;;;;;4953991;28;20246;-41
2021/07/03 09:43:36;;;;;;;5.30;4.78;;;24.00;80.40;;;;;;4953885;28;20274;-44
2021/07/03 09:46:05;;;;;;;5.53;5.03;;;23.90;80.20;;;;;;4953734;28;20685;-41
2021/07/03 09:48:38;;;;;;;7.45;5.63;;;23.90;79.70;;;;;;4953094;28;20275;-42
2021/07/03 09:51:09;;;;;;;5.75;5.03;;;23.90;79.40;;;;;;4953601;28;20650;-42
2021/07/03 09:53:37;;;;;;;5.70;5.20;;;24.00;78.90;;;;;;4953701;28;20313;-44
2021/07/03 09:56:07;;;;;;;9.40;5.05;;;24.00;78.60;;;;;;4953577;28;20211;-43
2021/07/03 09:58:35;;;;;;;5.85;5.25;;;24.00;78.20;;;;;;4953380;28;20299;-41
2021/07/03 10:01:03;;;;;;;5.32;4.88;;;24.00;78.10;;;;;;4953446;28;20231;-43
2021/07/03 10:03:32;;;;;;;7.20;5.43;;;24.00;77.90;;;;;;4953341;28;20214;-41
2021/07/03 10:06:04;;;;;;;5.43;4.93;;;23.90;77.40;;;;;;4953410;28;20235;-43
2021/07/03 10:08:34;;;;;;;4.53;4.22;;;23.90;77.50;;;;;;4953571;28;20254;-43
2021/07/03 10:11:03;;;;;;;6.30;4.85;;;23.90;77.40;;;;;;4953761;28;20211;-41
2021/07/03 10:13:33;;;;;;;5.55;5.05;;;24.00;77.20;;;;;;4953423;28;20307;-41
2021/07/03 10:16:07;;;;;;;8.32;4.85;;;24.00;76.80;;;;;;4953735;28;20231;-42
2021/07/03 10:18:37;;;;;;;5.78;5.15;;;24.10;76.20;;;;;;4953946;28;20338;-43
2021/07/03 10:21:11;;;;;;;5.95;5.32;;;24.00;76.40;;;;;;4953204;28;20704;-43
2021/07/03 10:23:41;;;;;;;5.18;4.72;;;23.90;76.10;;;;;;4953325;28;20693;-43
2021/07/03 10:26:09;;;;;;;5.13;4.63;;;23.90;75.80;;;;;;4953121;28;20225;-42
2021/07/03 10:28:39;;;;;;;6.07;5.00;;;24.00;75.70;;;;;;4953133;28;20250;-41
2021/07/03 10:31:09;;;;;;;4.90;4.50;;;24.10;75.50;;;;;;4954347;28;20291;-41
2021/07/03 10:33:43;;;;;;;4.78;4.28;;;24.20;75.10;;;;;;4953140;28;20611;-43
2021/07/03 10:36:23;;;;;;;5.22;4.72;;;24.30;74.70;;;;;;4953045;28;20306;-41
2021/07/03 10:38:51;;;;;;;4.95;4.55;;;24.40;74.80;;;;;;4952860;28;20686;-42
2021/07/03 10:41:23;;;;;;;5.60;4.82;;;24.40;75.30;;;;;;4952961;28;20266;-42
2021/07/03 10:43:53;;;;;;;5.22;4.72;;;24.40;74.50;;;;;;4952793;28;20648;-41
2021/07/03 10:46:29;;;;;;;5.80;5.20;;;24.30;74.30;;;;;;4953209;28;20318;-41
2021/07/03 10:48:59;;;;;;;5.53;5.00;;;24.30;74.00;;;;;;4934459;29;20222;-42
2021/07/03 10:51:37;;;;;;;5.82;5.32;;;24.30;74.20;;;;;;4933410;29;20209;-42
2021/07/03 10:54:19;;;;;;;5.93;4.95;;;24.40;73.90;;;;;;4933435;29;20232;-42
2021/07/03 10:56:50;;;;;;;5.95;5.20;;;24.50;72.90;;;;;;4934066;29;20320;-41
2021/07/03 10:59:24;;;;;;;5.50;4.95;;;24.60;72.60;;;;;;4933675;29;20212;-42
2021/07/03 11:01:53;;;;;;;6.93;4.57;;;24.60;72.80;;;;;;4936695;29;20231;-42
2021/07/03 11:04:22;;;;;;;6.47;5.85;;;24.60;72.60;;;;;;4935158;29;20208;-43
2021/07/03 11:06:53;;;;;;;5.20;4.70;;;24.70;72.10;;;;;;4926993;29;20672;-44
2021/07/03 11:09:25;;;;;;;7.20;5.43;;;24.80;71.50;;;;;;4926288;29;20246;-42
2021/07/03 11:11:56;;;;;;;5.10;4.60;;;24.80;71.50;;;;;;4926316;29;20851;-42
2021/07/03 11:14:26;;;;;;;6.28;4.82;;;24.80;71.30;;;;;;4926382;29;20671;-43
2021/07/03 11:16:57;;;;;;;5.63;5.10;;;24.90;71.00;;;;;;4926702;29;20231;-44
2021/07/03 11:19:27;;;;;;;6.70;5.43;;;24.90;70.50;;;;;;4927256;29;20630;-42
2021/07/03 11:22:08;;;;;;;5.68;5.18;;;24.80;70.20;;;;;;4926694;29;20326;-43
2021/07/03 11:24:46;;;;;;;5.75;4.78;;;24.80;70.00;;;;;;4926071;29;20727;-42
2021/07/03 11:27:29;;;;;;;5.40;4.95;;;25.00;69.70;;;;;;4926278;29;20216;-46
2021/07/03 11:29:57;;;;;;;5.40;4.88;;;25.10;68.90;;;;;;4926594;29;20216;-42
2021/07/03 11:32:26;;;;;;;6.05;4.70;;;25.10;68.50;;;;;;4927527;29;20284;-43
2021/07/03 11:34:56;;;;;;;6.22;5.63;;;25.00;68.50;;;;;;4927125;29;20255;-42
2021/07/03 11:37:30;;;;;;;7.15;6.50;;;24.80;68.70;;;;;;4926411;29;20246;-44
2021/07/03 11:40:05;;;;;;;5.68;4.90;;;24.90;69.10;;;;;;4925827;29;20722;-41
2021/07/03 11:42:35;;;;;;;6.30;4.65;;;25.00;68.70;;;;;;4925792;29;20697;-41
2021/07/03 11:45:06;;;;;;;5.72;5.22;;;25.10;68.40;;;;;;4926254;29;20211;-43
2021/07/03 11:47:36;;;;;;;5.20;4.68;;;25.20;68.20;;;;;;4934836;29;20256;-43
2021/07/03 11:50:07;;;;;;;5.22;4.70;;;25.30;68.70;;;;;;4944848;29;20618;-40
2021/07/03 11:52:47;;;;;;;4.75;4.35;;;25.50;67.80;;;;;;4945299;29;20597;-42
2021/07/03 11:55:17;;;;;;;5.97;4.45;;;25.60;66.50;;;;;;4944369;28;20223;-42
2021/07/03 11:57:47;;;;;;;4.20;3.88;;;25.70;65.60;;;;;;4945104;29;20310;-41
2021/07/03 12:00:18;;;;;;;4.68;4.32;;;25.80;65.00;;;;;;4944630;29;20577;-41
2021/07/03 12:02:46;;;;;;;4.65;4.25;;;25.80;64.30;;;;;;4955457;28;20237;-41
2021/07/03 12:05:19;;;;;;;4.70;4.30;;;25.70;63.90;;;;;;4955362;28;20215;-43
2021/07/03 12:07:58;;;;;;;5.45;4.95;;;25.60;64.30;;;;;;4955239;28;20502;-43
2021/07/03 12:10:35;;;;;;;5.50;4.75;;;25.50;64.20;;;;;;4955570;28;20210;-41
2021/07/03 12:13:03;;;;;;;6.85;4.68;;;25.50;64.70;;;;;;4954479;28;20207;-43
2021/07/03 12:15:32;;;;;;;5.57;5.07;;;25.60;64.50;;;;;;4955489;28;20325;-42
2021/07/03 12:18:00;;;;;;;5.07;4.57;;;25.60;64.20;;;;;;4955231;28;20310;-43
2021/07/03 12:20:29;;;;;;;6.53;5.28;;;25.50;64.20;;;;;;4955165;28;20247;-44
2021/07/03 12:23:01;;;;;;;7.85;4.97;;;25.50;64.50;;;;;;4954976;28;20595;-44
2021/07/03 12:25:51;;;;;;;5.40;4.93;;;25.50;64.50;;;;;;4934740;28;20680;-43
2021/07/03 12:28:22;;;;;;;7.40;4.97;;;25.50;64.10;;;;;;4954862;28;20242;-41
2021/07/03 12:30:50;;;;;;;5.10;4.70;;;25.60;63.90;;;;;;4955033;28;20698;-42
2021/07/03 12:33:18;;;;;;;5.80;4.85;;;25.60;63.60;;;;;;4946274;28;20664;-43
2021/07/03 12:35:52;;;;;;;5.50;4.85;;;25.70;63.40;;;;;;4944419;29;20306;-42
2021/07/03 12:38:26;;;;;;;4.72;4.32;;;25.70;63.80;;;;;;4944408;29;20723;-43
2021/07/03 12:40:54;;;;;;;5.07;4.68;;;25.70;63.20;;;;;;4943922;29;20623;-43
2021/07/03 12:43:30;;;;;;;5.57;4.95;;;25.80;63.00;;;;;;4944134;28;20226;-41
2021/07/03 12:45:59;;;;;;;5.68;5.05;;;25.80;63.20;;;;;;4944310;29;20215;-42
2021/07/03 12:48:36;;;;;;;5.15;4.65;;;25.80;63.30;;;;;;4953345;29;20244;-41
2021/07/03 12:51:10;;;;;;;5.70;5.20;;;25.90;63.40;;;;;;4954549;28;20219;-44
2021/07/03 12:53:39;;;;;;;5.55;5.10;;;26.10;63.00;;;;;;4954698;28;20230;-44
2021/07/03 12:56:09;;;;;;;5.22;4.72;;;26.20;62.70;;;;;;4954615;28;20290;-42
2021/07/03 12:58:37;;;;;;;5.07;4.68;;;26.40;62.40;;;;;;4954504;28;20319;-44